createdAt,value
2022-12-06T00:18:29.261Z,19.5
2022-12-06T00:48:29.248Z,19.4
2022-12-06T01:18:29.348Z,19.3
2022-12-06T01:48:29.283Z,19.2
2022-12-06T02:18:29.299Z,19.1
2022-12-06T02:48:29.266Z,19.1
2022-12-06T03:18:29.251Z,19.0
2022-12-06T03:48:29.265Z,19.0
2022-12-06T04:18:29.281Z,19.0
2022-12-06T04:48:29.254Z,19.1
2022-12-06T05:18:29.312Z,19.2
2022-12-06T05:48:29.293Z,19.4
2022-12-06T06:18:29.278Z,19.5
2022-12-06T06:48:29.281Z,19.6
2022-12-06T07:18:29.268Z,19.8
2022-12-06T07:48:29.352Z,19.8
2022-12-06T08:18:29.275Z,20.1
2022-12-06T08:48:29.247Z,20.0
2022-12-06T09:18:29.378Z,20.2
2022-12-06T09:48:29.269Z,20.3
2022-12-06T10:18:29.266Z,20.5
2022-12-06T10:48:29.259Z,20.5
2022-12-06T11:18:29.247Z,20.5
2022-12-06T11:48:29.274Z,20.4
2022-12-06T12:18:29.254Z,20.3
2022-12-06T12:48:29.264Z,20.5
2022-12-06T13:18:29.257Z,20.6
2022-12-06T13:48:29.228Z,20.6
2022-12-06T14:18:29.246Z,20.7
2022-12-06T14:48:29.225Z,20.8
2022-12-06T15:18:29.225Z,20.8
2022-12-06T15:48:29.243Z,21.0
2022-12-06T16:18:29.251Z,21.0
2022-12-06T16:48:29.230Z,20.9
2022-12-06T17:18:29.238Z,20.7
2022-12-06T17:48:29.220Z,20.6
2022-12-06T18:18:29.239Z,20.6
2022-12-06T18:48:29.402Z,20.5
2022-12-06T19:18:29.352Z,20.5
2022-12-06T19:48:29.323Z,20.3
2022-12-06T20:18:29.348Z,20.1
2022-12-06T20:48:29.426Z,20.0
2022-12-06T21:18:29.222Z,20.0
2022-12-06T21:48:29.246Z,19.8
2022-12-06T22:18:29.333Z,19.7
2022-12-06T22:48:29.376Z,19.6
2022-12-06T23:18:29.269Z,19.6
2022-12-06T23:48:29.231Z,19.5
